sensor_id;sensor_type;location;lat;lon;timestamp;pressure;altitude;pressure_sealevel;temperature;humidity
76858;BME280;65830;0.000;0.000;2023-04-22T00:00:26;99513.50;;;13.56;67.91
76858;BME280;65830;0.000;0.000;2023-04-22T00:02:53;99516.50;;;13.53;67.69
76858;BME280;65830;0.000;0.000;2023-04-22T00:05:20;99515.00;;;13.50;67.52
76858;BME280;65830;0.000;0.000;2023-04-22T00:07:46;99517.47;;;13.51;66.52
76858;BME280;65830;0.000;0.000;2023-04-22T00:10:12;99516.66;;;13.51;68.17
76858;BME280;65830;0.000;0.000;2023-04-22T00:12:37;99508.81;;;13.49;65.92
76858;BME280;65830;0.000;0.000;2023-04-22T00:15:03;99510.13;;;13.45;67.31
76858;BME280;65830;0.000;0.000;2023-04-22T00:17:29;99513.47;;;13.47;65.91
76858;BME280;65830;0.000;0.000;2023-04-22T00:19:54;99515.16;;;13.48;67.15
76858;BME280;65830;0.000;0.000;2023-04-22T00:22:20;99506.50;;;13.46;65.85
76858;BME280;65830;0.000;0.000;2023-04-22T00:24:45;99506.63;;;13.45;67.28
76858;BME280;65830;0.000;0.000;2023-04-22T00:27:11;99503.47;;;13.41;66.32
76858;BME280;65830;0.000;0.000;2023-04-22T00:29:37;99503.78;;;13.38;68.47
76858;BME280;65830;0.000;0.000;2023-04-22T00:32:02;99493.63;;;13.42;66.18
76858;BME280;65830;0.000;0.000;2023-04-22T00:34:28;99489.97;;;13.43;67.14
76858;BME280;65830;0.000;0.000;2023-04-22T00:36:53;99501.63;;;13.42;66.99
76858;BME280;65830;0.000;0.000;2023-04-22T00:39:19;99496.94;;;13.36;68.04
76858;BME280;65830;0.000;0.000;2023-04-22T00:41:45;99501.31;;;13.45;68.21
76858;BME280;65830;0.000;0.000;2023-04-22T00:44:11;99503.38;;;13.25;68.74
76858;BME280;65830;0.000;0.000;2023-04-22T00:46:37;99503.13;;;13.36;67.87
76858;BME280;65830;0.000;0.000;2023-04-22T00:49:03;99503.78;;;13.38;68.12
76858;BME280;65830;0.000;0.000;2023-04-22T00:51:29;99506.13;;;13.41;67.36
76858;BME280;65830;0.000;0.000;2023-04-22T00:53:54;99506.94;;;13.42;66.74
76858;BME280;65830;0.000;0.000;2023-04-22T00:56:20;99512.63;;;13.39;67.64
76858;BME280;65830;0.000;0.000;2023-04-22T00:58:46;99516.44;;;13.36;67.19
76858;BME280;65830;0.000;0.000;2023-04-22T01:01:12;99513.41;;;13.31;67.27
76858;BME280;65830;0.000;0.000;2023-04-22T01:03:37;99516.53;;;13.26;67.31
76858;BME280;65830;0.000;0.000;2023-04-22T01:06:05;99510.00;;;13.21;67.98
76858;BME280;65830;0.000;0.000;2023-04-22T01:08:30;99510.34;;;13.26;66.51
76858;BME280;65830;0.000;0.000;2023-04-22T01:10:56;99509.78;;;13.32;66.82
76858;BME280;65830;0.000;0.000;2023-04-22T01:13:22;99509.59;;;13.34;66.79
76858;BME280;65830;0.000;0.000;2023-04-22T01:15:49;99516.44;;;13.36;66.36
76858;BME280;65830;0.000;0.000;2023-04-22T01:18:15;99516.09;;;13.39;67.05
76858;BME280;65830;0.000;0.000;2023-04-22T01:20:41;99514.44;;;13.38;66.99
76858;BME280;65830;0.000;0.000;2023-04-22T01:23:11;99502.94;;;13.38;65.71
76858;BME280;65830;0.000;0.000;2023-04-22T01:25:41;99513.13;;;13.42;66.94
76858;BME280;65830;0.000;0.000;2023-04-22T01:28:06;99506.28;;;13.40;66.83
76858;BME280;65830;0.000;0.000;2023-04-22T01:30:32;99514.13;;;13.41;67.18
76858;BME280;65830;0.000;0.000;2023-04-22T01:32:58;99509.44;;;13.35;66.89
76858;BME280;65830;0.000;0.000;2023-04-22T01:35:24;99505.25;;;13.33;67.41
76858;BME280;65830;0.000;0.000;2023-04-22T01:37:49;99506.09;;;13.33;66.66
76858;BME280;65830;0.000;0.000;2023-04-22T01:40:15;99511.75;;;13.30;66.86
76858;BME280;65830;0.000;0.000;2023-04-22T01:42:44;99503.88;;;13.28;67.52
76858;BME280;65830;0.000;0.000;2023-04-22T01:45:10;99505.72;;;13.28;68.00
76858;BME280;65830;0.000;0.000;2023-04-22T01:47:37;99506.72;;;13.27;67.01
76858;BME280;65830;0.000;0.000;2023-04-22T01:50:03;99503.38;;;13.25;66.83
76858;BME280;65830;0.000;0.000;2023-04-22T01:52:29;99501.66;;;13.16;68.05
76858;BME280;65830;0.000;0.000;2023-04-22T01:54:54;99498.81;;;13.09;67.93
76858;BME280;65830;0.000;0.000;2023-04-22T01:57:20;99495.94;;;13.02;68.36
76858;BME280;65830;0.000;0.000;2023-04-22T01:59:45;99493.28;;;13.02;68.14
76858;BME280;65830;0.000;0.000;2023-04-22T02:02:11;99490.25;;;12.97;67.53
76858;BME280;65830;0.000;0.000;2023-04-22T02:04:36;99500.06;;;12.97;68.05
76858;BME280;65830;0.000;0.000;2023-04-22T02:07:02;99494.25;;;13.01;68.72
76858;BME280;65830;0.000;0.000;2023-04-22T02:09:28;99489.94;;;13.00;68.20
76858;BME280;65830;0.000;0.000;2023-04-22T02:11:53;99487.97;;;13.02;67.52
76858;BME280;65830;0.000;0.000;2023-04-22T02:14:20;99487.75;;;12.96;68.77
76858;BME280;65830;0.000;0.000;2023-04-22T02:16:45;99485.22;;;12.94;68.73
76858;BME280;65830;0.000;0.000;2023-04-22T02:19:11;99489.88;;;12.92;69.37
76858;BME280;65830;0.000;0.000;2023-04-22T02:21:36;99491.72;;;12.91;68.10
76858;BME280;65830;0.000;0.000;2023-04-22T02:24:02;99495.19;;;12.92;69.03
76858;BME280;65830;0.000;0.000;2023-04-22T02:26:27;99490.72;;;12.93;68.90
76858;BME280;65830;0.000;0.000;2023-04-22T02:28:53;99491.19;;;12.88;69.48
76858;BME280;65830;0.000;0.000;2023-04-22T02:31:18;99495.16;;;12.84;69.22
76858;BME280;65830;0.000;0.000;2023-04-22T02:33:44;99500.47;;;12.84;69.14
76858;BME280;65830;0.000;0.000;2023-04-22T02:36:10;99492.97;;;12.79;69.40
76858;BME280;65830;0.000;0.000;2023-04-22T02:38:36;99505.09;;;12.74;69.50
76858;BME280;65830;0.000;0.000;2023-04-22T02:41:02;99503.44;;;12.73;69.76
76858;BME280;65830;0.000;0.000;2023-04-22T02:43:28;99498.94;;;12.73;69.36
76858;BME280;65830;0.000;0.000;2023-04-22T02:45:54;99502.22;;;12.67;69.79
76858;BME280;65830;0.000;0.000;2023-04-22T02:48:19;99502.22;;;12.67;70.36
76858;BME280;65830;0.000;0.000;2023-04-22T02:50:45;99507.38;;;12.68;70.43
76858;BME280;65830;0.000;0.000;2023-04-22T02:53:11;99510.03;;;12.68;69.88
76858;BME280;65830;0.000;0.000;2023-04-22T02:55:37;99502.53;;;12.64;68.61
76858;BME280;65830;0.000;0.000;2023-04-22T02:58:03;99504.22;;;12.65;68.49
76858;BME280;65830;0.000;0.000;2023-04-22T03:00:29;99505.19;;;12.64;70.27
76858;BME280;65830;0.000;0.000;2023-04-22T03:02:54;99507.69;;;12.65;69.50
76858;BME280;65830;0.000;0.000;2023-04-22T03:05:25;99505.34;;;12.62;68.26
76858;BME280;65830;0.000;0.000;2023-04-22T03:07:51;99509.69;;;12.63;69.95
76858;BME280;65830;0.000;0.000;2023-04-22T03:10:17;99497.34;;;12.62;70.46
76858;BME280;65830;0.000;0.000;2023-04-22T03:12:43;99499.03;;;12.63;70.17
76858;BME280;65830;0.000;0.000;2023-04-22T03:15:09;99497.34;;;12.62;69.83
76858;BME280;65830;0.000;0.000;2023-04-22T03:17:35;99504.97;;;12.57;71.46
76858;BME280;65830;0.000;0.000;2023-04-22T03:20:05;99506.09;;;12.55;71.16
76858;BME280;65830;0.000;0.000;2023-04-22T03:22:30;99503.44;;;12.55;70.16
76858;BME280;65830;0.000;0.000;2023-04-22T03:24:58;99500.97;;;12.53;69.96
76858;BME280;65830;0.000;0.000;2023-04-22T03:27:26;99503.63;;;12.53;70.29
76858;BME280;65830;0.000;0.000;2023-04-22T03:29:53;99503.63;;;12.53;71.54
76858;BME280;65830;0.000;0.000;2023-04-22T03:32:18;99503.38;;;12.46;70.87
76858;BME280;65830;0.000;0.000;2023-04-22T03:34:44;99508.34;;;12.41;71.43
76858;BME280;65830;0.000;0.000;2023-04-22T03:37:11;99512.00;;;12.40;71.05
76858;BME280;65830;0.000;0.000;2023-04-22T03:39:37;99515.88;;;12.46;70.72
76858;BME280;65830;0.000;0.000;2023-04-22T03:42:03;99518.38;;;12.47;70.30
76858;BME280;65830;0.000;0.000;2023-04-22T03:44:30;99524.38;;;12.49;68.42
76858;BME280;65830;0.000;0.000;2023-04-22T03:46:55;99528.88;;;12.49;69.05
76858;BME280;65830;0.000;0.000;2023-04-22T03:49:26;99530.53;;;12.50;69.12
76858;BME280;65830;0.000;0.000;2023-04-22T03:51:53;99532.22;;;12.51;69.01
76858;BME280;65830;0.000;0.000;2023-04-22T03:54:22;99531.97;;;12.44;70.04
76858;BME280;65830;0.000;0.000;2023-04-22T03:56:50;99544.16;;;12.47;69.47
76858;BME280;65830;0.000;0.000;2023-04-22T03:59:17;99543.31;;;12.46;69.76
76858;BME280;65830;0.000;0.000;2023-04-22T04:01:46;99541.31;;;12.48;69.33
76858;BME280;65830;0.000;0.000;2023-04-22T04:04:12;99548.34;;;12.49;70.71
76858;BME280;65830;0.000;0.000;2023-04-22T04:06:45;99547.66;;;12.47;69.16
76858;BME280;65830;0.000;0.000;2023-04-22T04:09:11;99556.41;;;12.40;71.90
76858;BME280;65830;0.000;0.000;2023-04-22T04:11:36;99555.09;;;12.44;71.12
76858;BME280;65830;0.000;0.000;2023-04-22T04:14:03;99559.81;;;12.50;70.64
76858;BME280;65830;0.000;0.000;2023-04-22T04:16:39;99562.63;;;12.48;69.38
76858;BME280;65830;0.000;0.000;2023-04-22T04:19:10;99560.81;;;12.49;70.38
76858;BME280;65830;0.000;0.000;2023-04-22T04:21:37;99559.44;;;12.45;70.00
76858;BME280;65830;0.000;0.000;2023-04-22T04:24:05;99562.94;;;12.45;71.09
76858;BME280;65830;0.000;0.000;2023-04-22T04:26:35;99564.38;;;12.40;70.77
76858;BME280;65830;0.000;0.000;2023-04-22T04:29:08;99561.59;;;12.23;72.10
76858;BME280;65830;0.000;0.000;2023-04-22T04:31:36;99565.75;;;12.26;71.34
76858;BME280;65830;0.000;0.000;2023-04-22T04:34:03;99562.13;;;12.27;70.71
76858;BME280;65830;0.000;0.000;2023-04-22T04:36:31;99565.00;;;12.34;71.73
76858;BME280;65830;0.000;0.000;2023-04-22T04:39:07;99564.00;;;12.35;70.39
76858;BME280;65830;0.000;0.000;2023-04-22T04:41:34;99572.16;;;12.33;70.14
76858;BME280;65830;0.000;0.000;2023-04-22T04:44:01;99566.16;;;12.31;70.91
76858;BME280;65830;0.000;0.000;2023-04-22T04:46:31;99574.50;;;12.36;70.81
76858;BME280;65830;0.000;0.000;2023-04-22T04:48:59;99572.66;;;12.37;70.23
76858;BME280;65830;0.000;0.000;2023-04-22T04:51:28;99576.00;;;12.39;70.36
76858;BME280;65830;0.000;0.000;2023-04-22T04:53:57;99579.88;;;12.44;70.09
76858;BME280;65830;0.000;0.000;2023-04-22T04:56:27;99579.59;;;12.47;68.91
76858;BME280;65830;0.000;0.000;2023-04-22T04:58:53;99579.72;;;12.46;69.87
76858;BME280;65830;0.000;0.000;2023-04-22T05:01:23;99579.44;;;12.49;68.94
76858;BME280;65830;0.000;0.000;2023-04-22T05:03:49;99573.66;;;12.54;68.84
76858;BME280;65830;0.000;0.000;2023-04-22T05:06:16;99580.34;;;12.58;68.91
76858;BME280;65830;0.000;0.000;2023-04-22T05:08:47;99584.34;;;12.62;68.49
76858;BME280;65830;0.000;0.000;2023-04-22T05:11:12;99580.41;;;12.66;67.93
76858;BME280;65830;0.000;0.000;2023-04-22T05:13:39;99583.59;;;12.69;68.41
76858;BME280;65830;0.000;0.000;2023-04-22T05:16:07;99593.63;;;12.76;68.57
76858;BME280;65830;0.000;0.000;2023-04-22T05:18:34;99587.00;;;12.80;68.75
76858;BME280;65830;0.000;0.000;2023-04-22T05:21:04;99585.84;;;12.82;68.32
76858;BME280;65830;0.000;0.000;2023-04-22T05:23:32;99585.69;;;12.84;68.44
76858;BME280;65830;0.000;0.000;2023-04-22T05:25:58;99586.56;;;12.84;68.17
76858;BME280;65830;0.000;0.000;2023-04-22T05:28:25;99585.06;;;12.90;67.23
76858;BME280;65830;0.000;0.000;2023-04-22T05:30:54;99581.44;;;12.91;67.69
76858;BME280;65830;0.000;0.000;2023-04-22T05:33:19;99582.25;;;12.91;67.82
76858;BME280;65830;0.000;0.000;2023-04-22T05:35:45;99595.94;;;12.97;67.87
76858;BME280;65830;0.000;0.000;2023-04-22T05:38:11;99588.00;;;13.05;66.95
76858;BME280;65830;0.000;0.000;2023-04-22T05:40:38;99596.53;;;13.08;66.98
76858;BME280;65830;0.000;0.000;2023-04-22T05:43:06;99583.72;;;13.12;66.62
76858;BME280;65830;0.000;0.000;2023-04-22T05:45:32;99597.88;;;13.13;67.01
76858;BME280;65830;0.000;0.000;2023-04-22T05:47:58;99596.56;;;13.17;66.48
76858;BME280;65830;0.000;0.000;2023-04-22T05:50:25;99593.09;;;13.16;66.74
76858;BME280;65830;0.000;0.000;2023-04-22T05:52:56;99593.44;;;13.21;66.43
76858;BME280;65830;0.000;0.000;2023-04-22T05:55:22;99595.47;;;13.27;65.60
76858;BME280;65830;0.000;0.000;2023-04-22T05:57:47;99601.34;;;13.31;66.34
76858;BME280;65830;0.000;0.000;2023-04-22T06:00:36;99588.41;;;13.36;66.48
76858;BME280;65830;0.000;0.000;2023-04-22T06:03:15;99587.28;;;13.47;66.15
76858;BME280;65830;0.000;0.000;2023-04-22T06:05:40;99585.13;;;13.50;65.71
76858;BME280;65830;0.000;0.000;2023-04-22T06:08:07;99590.81;;;13.56;65.80
76858;BME280;65830;0.000;0.000;2023-04-22T06:10:34;99595.66;;;13.60;65.44
76858;BME280;65830;0.000;0.000;2023-04-22T06:12:59;99591.72;;;13.73;64.45
76858;BME280;65830;0.000;0.000;2023-04-22T06:15:25;99589.88;;;13.73;64.29
76858;BME280;65830;0.000;0.000;2023-04-22T06:17:51;99598.56;;;13.75;64.11
76858;BME280;65830;0.000;0.000;2023-04-22T06:20:16;99596.75;;;13.76;63.98
76858;BME280;65830;0.000;0.000;2023-04-22T06:22:43;99599.22;;;13.77;63.79
76858;BME280;65830;0.000;0.000;2023-04-22T06:25:08;99599.06;;;13.79;63.68
76858;BME280;65830;0.000;0.000;2023-04-22T06:27:34;99596.09;;;13.82;63.95
76858;BME280;65830;0.000;0.000;2023-04-22T06:30:00;99593.91;;;13.85;63.68
76858;BME280;65830;0.000;0.000;2023-04-22T06:32:28;99589.06;;;13.81;63.98
76858;BME280;65830;0.000;0.000;2023-04-22T06:34:54;99586.41;;;13.81;64.01
76858;BME280;65830;0.000;0.000;2023-04-22T06:37:19;99585.09;;;13.93;63.92
76858;BME280;65830;0.000;0.000;2023-04-22T06:39:45;99587.47;;;14.04;63.63
76858;BME280;65830;0.000;0.000;2023-04-22T06:42:33;99590.50;;;14.09;63.40
76858;BME280;65830;0.000;0.000;2023-04-22T06:45:18;99588.31;;;14.13;63.02
76858;BME280;65830;0.000;0.000;2023-04-22T06:48:19;99583.03;;;14.21;63.18
76858;BME280;65830;0.000;0.000;2023-04-22T06:51:04;99582.03;;;14.30;62.48
76858;BME280;65830;0.000;0.000;2023-04-22T06:53:30;99581.69;;;14.34;62.32
76858;BME280;65830;0.000;0.000;2023-04-22T06:55:55;99586.22;;;14.41;62.67
76858;BME280;65830;0.000;0.000;2023-04-22T06:58:21;99593.72;;;14.46;61.87
76858;BME280;65830;0.000;0.000;2023-04-22T07:00:47;99592.38;;;14.50;61.73
76858;BME280;65830;0.000;0.000;2023-04-22T07:03:13;99594.41;;;14.56;61.35
76858;BME280;65830;0.000;0.000;2023-04-22T07:05:39;99594.78;;;14.61;61.58
76858;BME280;65830;0.000;0.000;2023-04-22T07:08:04;99602.13;;;14.67;61.61
76858;BME280;65830;0.000;0.000;2023-04-22T07:10:30;99603.44;;;14.80;61.40
76858;BME280;65830;0.000;0.000;2023-04-22T07:13:22;99594.75;;;14.86;61.49
76858;BME280;65830;0.000;0.000;2023-04-22T07:15:47;99585.06;;;14.93;61.20
76858;BME280;65830;0.000;0.000;2023-04-22T07:18:13;99590.72;;;14.98;61.06
76858;BME280;65830;0.000;0.000;2023-04-22T07:20:38;99599.59;;;15.07;60.89
76858;BME280;65830;0.000;0.000;2023-04-22T07:23:04;99602.06;;;15.00;60.61
76858;BME280;65830;0.000;0.000;2023-04-22T07:25:30;99596.59;;;14.94;60.70
76858;BME280;65830;0.000;0.000;2023-04-22T07:27:56;99598.75;;;14.98;60.60
76858;BME280;65830;0.000;0.000;2023-04-22T07:30:21;99605.25;;;15.04;60.81
76858;BME280;65830;0.000;0.000;2023-04-22T07:32:47;99606.41;;;15.09;60.94
76858;BME280;65830;0.000;0.000;2023-04-22T07:35:12;99607.56;;;15.23;60.79
76858;BME280;65830;0.000;0.000;2023-04-22T07:37:38;99598.00;;;15.37;60.56
76858;BME280;65830;0.000;0.000;2023-04-22T07:40:03;99609.34;;;15.47;59.87
76858;BME280;65830;0.000;0.000;2023-04-22T07:42:30;99604.47;;;15.51;59.10
76858;BME280;65830;0.000;0.000;2023-04-22T07:44:56;99604.31;;;15.53;59.48
76858;BME280;65830;0.000;0.000;2023-04-22T07:47:21;99600.63;;;15.54;58.72
76858;BME280;65830;0.000;0.000;2023-04-22T07:49:47;99600.13;;;15.58;58.05
76858;BME280;65830;0.000;0.000;2023-04-22T07:52:12;99593.91;;;15.58;57.86
76858;BME280;65830;0.000;0.000;2023-04-22T07:54:38;99590.91;;;15.61;58.15
76858;BME280;65830;0.000;0.000;2023-04-22T07:57:04;99588.25;;;15.61;57.76
76858;BME280;65830;0.000;0.000;2023-04-22T07:59:35;99602.59;;;15.68;57.64
76858;BME280;65830;0.000;0.000;2023-04-22T08:02:01;99592.75;;;15.60;57.10
76858;BME280;65830;0.000;0.000;2023-04-22T08:04:26;99596.13;;;15.46;57.50
76858;BME280;65830;0.000;0.000;2023-04-22T08:06:52;99590.59;;;15.56;57.98
76858;BME280;65830;0.000;0.000;2023-04-22T08:09:19;99597.06;;;15.69;57.48
76858;BME280;65830;0.000;0.000;2023-04-22T08:11:44;99592.38;;;15.80;57.82
76858;BME280;65830;0.000;0.000;2023-04-22T08:14:10;99589.66;;;15.88;57.36
76858;BME280;65830;0.000;0.000;2023-04-22T08:16:36;99590.81;;;15.94;57.20
76858;BME280;65830;0.000;0.000;2023-04-22T08:19:02;99590.28;;;15.98;56.83
76858;BME280;65830;0.000;0.000;2023-04-22T08:21:27;99587.72;;;16.05;56.27
76858;BME280;65830;0.000;0.000;2023-04-22T08:23:53;99585.84;;;16.14;56.36
76858;BME280;65830;0.000;0.000;2023-04-22T08:26:19;99581.84;;;16.33;55.58
76858;BME280;65830;0.000;0.000;2023-04-22T08:28:45;99582.50;;;16.35;56.49
76858;BME280;65830;0.000;0.000;2023-04-22T08:31:10;99577.09;;;16.43;56.18
76858;BME280;65830;0.000;0.000;2023-04-22T08:33:39;99580.72;;;16.50;56.37
76858;BME280;65830;0.000;0.000;2023-04-22T08:36:05;99571.63;;;16.59;56.06
76858;BME280;65830;0.000;0.000;2023-04-22T08:38:31;99568.16;;;16.74;56.27
76858;BME280;65830;0.000;0.000;2023-04-22T08:40:56;99561.66;;;16.91;56.22
76858;BME280;65830;0.000;0.000;2023-04-22T08:43:26;99562.31;;;16.93;55.46
76858;BME280;65830;0.000;0.000;2023-04-22T08:45:51;99559.25;;;16.96;55.34
76858;BME280;65830;0.000;0.000;2023-04-22T08:48:17;99560.75;;;16.99;55.18
76858;BME280;65830;0.000;0.000;2023-04-22T08:50:43;99556.69;;;17.03;54.58
76858;BME280;65830;0.000;0.000;2023-04-22T08:53:11;99552.44;;;17.09;54.20
76858;BME280;65830;0.000;0.000;2023-04-22T08:55:37;99545.50;;;17.14;54.60
76858;BME280;65830;0.000;0.000;2023-04-22T08:58:03;99551.22;;;17.26;55.31
76858;BME280;65830;0.000;0.000;2023-04-22T09:00:31;99547.81;;;17.32;54.54
76858;BME280;65830;0.000;0.000;2023-04-22T09:03:25;99536.69;;;17.50;55.13
76858;BME280;65830;0.000;0.000;2023-04-22T09:05:50;99543.97;;;17.71;54.94
76858;BME280;65830;0.000;0.000;2023-04-22T09:08:17;99535.75;;;17.73;54.82
76858;BME280;65830;0.000;0.000;2023-04-22T09:10:43;99534.66;;;17.67;54.27
76858;BME280;65830;0.000;0.000;2023-04-22T09:13:09;99534.66;;;17.67;54.31
76858;BME280;65830;0.000;0.000;2023-04-22T09:15:36;99526.59;;;17.67;54.53
76858;BME280;65830;0.000;0.000;2023-04-22T09:18:18;99524.09;;;17.65;54.25
76858;BME280;65830;0.000;0.000;2023-04-22T09:20:45;99512.97;;;17.83;54.42
76858;BME280;65830;0.000;0.000;2023-04-22T09:23:11;99521.13;;;17.90;54.74
76858;BME280;65830;0.000;0.000;2023-04-22T09:26:09;99524.06;;;17.95;54.37
76858;BME280;65830;0.000;0.000;2023-04-22T09:28:38;99510.16;;;17.92;53.44
76858;BME280;65830;0.000;0.000;2023-04-22T09:31:13;99510.28;;;17.83;53.83
76858;BME280;65830;0.000;0.000;2023-04-22T09:33:38;99506.22;;;17.88;53.83
76858;BME280;65830;0.000;0.000;2023-04-22T09:36:07;99502.75;;;17.94;53.74
76858;BME280;65830;0.000;0.000;2023-04-22T09:38:33;99498.16;;;18.09;53.27
76858;BME280;65830;0.000;0.000;2023-04-22T09:40:59;99502.34;;;18.12;52.24
76858;BME280;65830;0.000;0.000;2023-04-22T09:43:24;99497.41;;;18.15;53.24
76858;BME280;65830;0.000;0.000;2023-04-22T09:45:50;99492.13;;;18.22;53.09
76858;BME280;65830;0.000;0.000;2023-04-22T09:48:18;99491.00;;;18.38;52.23
76858;BME280;65830;0.000;0.000;2023-04-22T09:50:49;99481.66;;;18.55;51.22
76858;BME280;65830;0.000;0.000;2023-04-22T09:53:16;99473.19;;;18.58;50.57
76858;BME280;65830;0.000;0.000;2023-04-22T09:55:43;99478.03;;;18.70;50.63
76858;BME280;65830;0.000;0.000;2023-04-22T09:58:09;99480.19;;;18.81;50.81
76858;BME280;65830;0.000;0.000;2023-04-22T10:00:42;99468.75;;;18.79;49.41
76858;BME280;65830;0.000;0.000;2023-04-22T10:03:08;99472.25;;;18.73;50.36
76858;BME280;65830;0.000;0.000;2023-04-22T10:05:34;99471.31;;;18.59;49.28
76858;BME280;65830;0.000;0.000;2023-04-22T10:08:03;99469.22;;;18.54;49.82
76858;BME280;65830;0.000;0.000;2023-04-22T10:10:29;99476.69;;;18.59;50.60
76858;BME280;65830;0.000;0.000;2023-04-22T10:12:55;99470.34;;;18.66;49.88
76858;BME280;65830;0.000;0.000;2023-04-22T10:15:20;99469.97;;;18.70;48.54
76858;BME280;65830;0.000;0.000;2023-04-22T10:17:46;99470.19;;;18.75;49.12
76858;BME280;65830;0.000;0.000;2023-04-22T10:20:14;99475.56;;;18.75;49.08
76858;BME280;65830;0.000;0.000;2023-04-22T10:22:40;99470.41;;;19.01;49.46
76858;BME280;65830;0.000;0.000;2023-04-22T10:25:10;99471.50;;;19.20;47.45
76858;BME280;65830;0.000;0.000;2023-04-22T10:27:37;99465.19;;;19.41;46.79
76858;BME280;65830;0.000;0.000;2023-04-22T10:30:02;99461.53;;;19.56;46.57
76858;BME280;65830;0.000;0.000;2023-04-22T10:32:28;99464.44;;;19.61;46.33
76858;BME280;65830;0.000;0.000;2023-04-22T10:35:11;99462.84;;;19.73;45.36
76858;BME280;65830;0.000;0.000;2023-04-22T10:37:39;99471.56;;;19.82;46.00
76858;BME280;65830;0.000;0.000;2023-04-22T10:42:32;99479.28;;;19.98;46.11
76858;BME280;65830;0.000;0.000;2023-04-22T10:45:01;99463.75;;;20.00;46.78
76858;BME280;65830;0.000;0.000;2023-04-22T10:47:31;99470.78;;;20.08;46.20
76858;BME280;65830;0.000;0.000;2023-04-22T10:52:45;99473.28;;;20.36;44.93
76858;BME280;65830;0.000;0.000;2023-04-22T10:55:11;99473.91;;;20.38;45.65
76858;BME280;65830;0.000;0.000;2023-04-22T10:57:37;99476.19;;;20.48;44.75
76858;BME280;65830;0.000;0.000;2023-04-22T11:02:50;99480.16;;;20.72;45.75
76858;BME280;65830;0.000;0.000;2023-04-22T11:05:17;99485.72;;;20.91;44.07
76858;BME280;65830;0.000;0.000;2023-04-22T11:07:43;99489.66;;;20.88;42.54
76858;BME280;65830;0.000;0.000;2023-04-22T11:10:09;99472.06;;;20.72;43.16
76858;BME280;65830;0.000;0.000;2023-04-22T11:12:40;99477.44;;;20.86;42.96
76858;BME280;65830;0.000;0.000;2023-04-22T11:15:16;99478.84;;;21.01;41.06
76858;BME280;65830;0.000;0.000;2023-04-22T11:17:43;99497.13;;;20.99;40.19
76858;BME280;65830;0.000;0.000;2023-04-22T11:20:09;99500.66;;;20.80;41.32
76858;BME280;65830;0.000;0.000;2023-04-22T11:22:35;99513.50;;;20.51;41.82
76858;BME280;65830;0.000;0.000;2023-04-22T11:25:02;99518.28;;;20.42;41.47
76858;BME280;65830;0.000;0.000;2023-04-22T11:27:31;99524.03;;;20.19;41.87
76858;BME280;65830;0.000;0.000;2023-04-22T11:32:26;99541.31;;;20.65;41.58
76858;BME280;65830;0.000;0.000;2023-04-22T11:34:51;99558.97;;;20.68;41.77
76858;BME280;65830;0.000;0.000;2023-04-22T11:37:17;99541.53;;;20.70;41.60
76858;BME280;65830;0.000;0.000;2023-04-22T11:39:43;99549.16;;;20.53;40.66
76858;BME280;65830;0.000;0.000;2023-04-22T11:42:11;99560.78;;;20.34;41.16
76858;BME280;65830;0.000;0.000;2023-04-22T11:44:37;99557.38;;;20.05;41.73
76858;BME280;65830;0.000;0.000;2023-04-22T11:47:02;99558.19;;;19.92;41.50
76858;BME280;65830;0.000;0.000;2023-04-22T11:49:28;99559.28;;;19.63;42.53
76858;BME280;65830;0.000;0.000;2023-04-22T11:51:57;99582.94;;;19.39;43.55
76858;BME280;65830;0.000;0.000;2023-04-22T11:54:36;99570.22;;;19.20;44.87
76858;BME280;65830;0.000;0.000;2023-04-22T11:57:02;99568.56;;;19.19;46.00
76858;BME280;65830;0.000;0.000;2023-04-22T11:59:28;99561.00;;;19.01;46.75
76858;BME280;65830;0.000;0.000;2023-04-22T12:01:54;99570.66;;;18.95;47.67
76858;BME280;65830;0.000;0.000;2023-04-22T12:04:20;99582.13;;;18.82;47.66
76858;BME280;65830;0.000;0.000;2023-04-22T12:06:46;99572.56;;;18.52;47.88
76858;BME280;65830;0.000;0.000;2023-04-22T12:09:11;99564.19;;;18.40;47.60
76858;BME280;65830;0.000;0.000;2023-04-22T12:11:37;99573.75;;;18.49;48.36
76858;BME280;65830;0.000;0.000;2023-04-22T12:14:06;99571.59;;;18.38;48.48
76858;BME280;65830;0.000;0.000;2023-04-22T12:16:41;99579.69;;;18.23;48.97
76858;BME280;65830;0.000;0.000;2023-04-22T12:19:07;99585.00;;;18.16;49.26
76858;BME280;65830;0.000;0.000;2023-04-22T12:21:32;99584.66;;;18.04;48.95
76858;BME280;65830;0.000;0.000;2023-04-22T12:24:02;99595.00;;;17.86;49.21
76858;BME280;65830;0.000;0.000;2023-04-22T12:26:32;99586.16;;;17.77;49.49
76858;BME280;65830;0.000;0.000;2023-04-22T12:28:58;99595.25;;;17.76;50.16
76858;BME280;65830;0.000;0.000;2023-04-22T12:31:24;99600.06;;;17.66;50.33
76858;BME280;65830;0.000;0.000;2023-04-22T12:33:50;99595.06;;;17.63;51.14
76858;BME280;65830;0.000;0.000;2023-04-22T12:36:16;99595.00;;;17.56;51.82
76858;BME280;65830;0.000;0.000;2023-04-22T12:38:41;99589.63;;;17.56;52.57
76858;BME280;65830;0.000;0.000;2023-04-22T12:41:07;99584.81;;;17.37;54.92
76858;BME280;65830;0.000;0.000;2023-04-22T12:43:33;99582.13;;;17.37;55.97
76858;BME280;65830;0.000;0.000;2023-04-22T12:46:07;99570.47;;;17.15;55.59
76858;BME280;65830;0.000;0.000;2023-04-22T12:48:33;99570.19;;;17.10;57.16
76858;BME280;65830;0.000;0.000;2023-04-22T12:51:01;99564.28;;;16.76;57.52
76858;BME280;65830;0.000;0.000;2023-04-22T12:53:27;99561.38;;;16.86;57.85
76858;BME280;65830;0.000;0.000;2023-04-22T12:55:53;99561.38;;;16.86;57.11
76858;BME280;65830;0.000;0.000;2023-04-22T12:58:18;99556.72;;;16.80;56.88
76858;BME280;65830;0.000;0.000;2023-04-22T13:00:44;99565.16;;;16.68;56.89
76858;BME280;65830;0.000;0.000;2023-04-22T13:03:09;99560.41;;;16.79;56.93
76858;BME280;65830;0.000;0.000;2023-04-22T13:05:35;99551.94;;;16.90;55.50
76858;BME280;65830;0.000;0.000;2023-04-22T13:08:01;99555.41;;;16.99;55.72
76858;BME280;65830;0.000;0.000;2023-04-22T13:10:27;99563.81;;;17.11;55.04
76858;BME280;65830;0.000;0.000;2023-04-22T13:12:53;99575.28;;;17.19;55.00
76858;BME280;65830;0.000;0.000;2023-04-22T13:15:18;99572.25;;;17.22;54.65
76858;BME280;65830;0.000;0.000;2023-04-22T13:17:44;99577.88;;;17.13;54.66
76858;BME280;65830;0.000;0.000;2023-04-22T13:20:10;99587.56;;;17.14;52.93